Time;durP1;ratioP1;P1;durP2;ratioP2;P2;SDS_P1;SDS_P2;PMS_P1;PMS_P2;Temp;Humidity;BMP_temperature;BMP_pressure;BME280_temperature;BME280_humidity;BME280_pressure;Samples;Min_cycle;Max_cycle;Signal;HPM_P1;HPM_P2
2021/09/26 00:01:20;;;;;;;10.02;6.10;;;;;;;;;;5033818;28;20037;-61
2021/09/26 00:03:49;;;;;;;9.23;5.88;;;;;;;;;;5034935;28;20029;-61
2021/09/26 00:06:14;;;;;;;12.05;6.30;;;;;;;;;;5034732;28;20106;-60
2021/09/26 00:08:39;;;;;;;10.63;6.75;;;;;;;;;;5034559;28;20099;-61
2021/09/26 00:11:06;;;;;;;10.02;5.70;;;;;;;;;;5036247;28;20033;-60
2021/09/26 00:13:50;;;;;;;10.45;6.38;;;;;;;;;;5046497;28;20071;-60
2021/09/26 00:16:18;;;;;;;8.45;6.05;;;;;;;;;;5033642;28;20038;-61
2021/09/26 00:18:43;;;;;;;8.65;5.88;;;;;;;;;;5034662;28;20445;-58
2021/09/26 00:21:09;;;;;;;8.95;6.60;;;;;;;;;;5034659;28;20049;-60
2021/09/26 00:23:37;;;;;;;9.98;6.07;;;;;;;;;;5034646;28;20021;-61
2021/09/26 00:26:05;;;;;;;8.32;5.90;;;;;;;;;;5034234;28;20029;-59
2021/09/26 00:28:31;;;;;;;9.30;6.10;;;;;;;;;;5034582;28;20068;-61
2021/09/26 00:30:57;;;;;;;9.00;6.40;;;;;;;;;;5013453;28;20045;-61
2021/09/26 00:33:23;;;;;;;8.90;6.13;;;;;;;;;;5026183;28;20052;-61
2021/09/26 00:35:48;;;;;;;9.70;5.90;;;;;;;;;;5034329;28;20041;-62
2021/09/26 00:38:18;;;;;;;7.85;6.15;;;;;;;;;;5034336;28;20435;-62
2021/09/26 00:40:48;;;;;;;9.55;6.25;;;;;;;;;;5034259;28;20087;-62
2021/09/26 00:43:13;;;;;;;9.20;6.35;;;;;;;;;;5034312;28;20022;-62
2021/09/26 00:45:38;;;;;;;9.05;6.30;;;;;;;;;;5034115;28;20495;-62
2021/09/26 00:48:03;;;;;;;8.07;6.00;;;;;;;;;;5033106;28;20032;-61
2021/09/26 00:50:48;;;;;;;8.43;5.28;;;;;;;;;;5034179;28;20026;-62
2021/09/26 00:53:16;;;;;;;10.18;6.28;;;;;;;;;;5032662;28;20018;-62
2021/09/26 00:55:42;;;;;;;10.23;6.72;;;;;;;;;;5034068;28;20455;-62
2021/09/26 00:58:10;;;;;;;11.43;7.35;;;;;;;;;;5034066;28;20049;-62
2021/09/26 01:00:35;;;;;;;11.18;7.50;;;;;;;;;;5032546;28;20468;-62
2021/09/26 01:03:00;;;;;;;14.03;7.73;;;;;;;;;;5032590;28;20056;-62
2021/09/26 01:05:27;;;;;;;9.32;6.65;;;;;;;;;;5033833;28;20782;-63
2021/09/26 01:07:58;;;;;;;9.73;7.30;;;;;;;;;;5032410;28;20349;-63
2021/09/26 01:10:42;;;;;;;11.50;7.03;;;;;;;;;;5033739;28;20030;-63
2021/09/26 01:13:23;;;;;;;11.88;7.60;;;;;;;;;;5033538;28;20021;-63
2021/09/26 01:15:54;;;;;;;9.13;6.47;;;;;;;;;;5033660;23;20058;-60
2021/09/26 01:18:37;;;;;;;12.27;6.97;;;;;;;;;;4992655;28;20477;-60
2021/09/26 01:21:15;;;;;;;10.88;6.88;;;;;;;;;;4994053;28;20015;-55
2021/09/26 01:23:52;;;;;;;10.73;6.75;;;;;;;;;;4994051;28;20389;-58
2021/09/26 01:26:35;;;;;;;11.80;7.05;;;;;;;;;;4976789;28;20027;-62
2021/09/26 01:29:33;;;;;;;12.93;7.88;;;;;;;;;;4974599;28;20054;-58
2021/09/26 01:32:00;;;;;;;9.18;6.68;;;;;;;;;;4952095;28;20058;-56
2021/09/26 01:34:46;;;;;;;8.02;6.28;;;;;;;;;;4974336;28;20026;-59
2021/09/26 01:37:26;;;;;;;13.75;6.80;;;;;;;;;;4973887;28;20031;-58
2021/09/26 01:40:04;;;;;;;10.43;6.72;;;;;;;;;;4974370;28;20023;-57
2021/09/26 01:42:34;;;;;;;9.32;6.10;;;;;;;;;;4973262;28;20043;-60
2021/09/26 01:45:08;;;;;;;9.13;6.57;;;;;;;;;;4974220;28;20023;-57
2021/09/26 01:47:55;;;;;;;11.35;6.03;;;;;;;;;;4974127;28;20023;-58
2021/09/26 01:50:23;;;;;;;8.55;6.05;;;;;;;;;;4972784;28;20540;-61
2021/09/26 01:52:49;;;;;;;13.00;6.55;;;;;;;;;;4972814;28;20026;-59
2021/09/26 01:55:14;;;;;;;8.20;5.78;;;;;;;;;;4973953;28;20019;-58
2021/09/26 01:57:40;;;;;;;8.35;6.18;;;;;;;;;;4972661;28;20473;-59
2021/09/26 02:00:14;;;;;;;7.50;6.00;;;;;;;;;;4974083;28;20023;-60
2021/09/26 02:02:47;;;;;;;8.70;5.75;;;;;;;;;;4972828;28;20393;-59
2021/09/26 02:05:12;;;;;;;9.82;6.07;;;;;;;;;;4973719;28;20022;-56
2021/09/26 02:07:45;;;;;;;8.13;6.03;;;;;;;;;;4972560;28;20085;-59
2021/09/26 02:10:12;;;;;;;10.35;6.50;;;;;;;;;;4972438;28;20023;-57
2021/09/26 02:12:37;;;;;;;9.93;6.28;;;;;;;;;;4985932;28;20022;-56
2021/09/26 02:15:12;;;;;;;7.55;6.43;;;;;;;;;;4973380;28;20419;-58
2021/09/26 02:17:38;;;;;;;10.70;6.75;;;;;;;;;;4973640;28;20397;-55
2021/09/26 02:20:04;;;;;;;8.85;5.95;;;;;;;;;;4973688;28;20073;-60
2021/09/26 02:22:33;;;;;;;10.18;6.30;;;;;;;;;;4973603;28;20029;-60
2021/09/26 02:24:59;;;;;;;8.75;5.18;;;;;;;;;;4972492;28;20373;-59
2021/09/26 02:27:31;;;;;;;8.85;5.53;;;;;;;;;;4972108;28;20034;-60
2021/09/26 02:29:56;;;;;;;9.88;6.07;;;;;;;;;;4972245;28;20018;-62
2021/09/26 02:32:22;;;;;;;8.52;6.32;;;;;;;;;;4973505;28;20062;-58
2021/09/26 02:34:47;;;;;;;9.55;6.45;;;;;;;;;;4973546;28;20019;-57
2021/09/26 02:37:12;;;;;;;8.30;6.00;;;;;;;;;;4971824;28;20402;-61
2021/09/26 02:39:43;;;;;;;9.27;6.17;;;;;;;;;;4973425;28;20034;-55
2021/09/26 02:42:12;;;;;;;9.57;6.13;;;;;;;;;;4973416;28;20274;-60
2021/09/26 02:44:52;;;;;;;7.65;6.18;;;;;;;;;;4973104;28;20026;-58
2021/09/26 02:47:20;;;;;;;8.82;6.07;;;;;;;;;;4973196;28;20034;-58
2021/09/26 02:49:47;;;;;;;10.60;6.03;;;;;;;;;;4973161;28;20034;-59
2021/09/26 02:52:20;;;;;;;8.02;5.97;;;;;;;;;;4973378;28;20100;-62
2021/09/26 02:54:45;;;;;;;12.43;6.28;;;;;;;;;;4956267;28;20149;-59
2021/09/26 02:57:11;;;;;;;9.52;6.57;;;;;;;;;;4973242;28;20110;-60
2021/09/26 02:59:36;;;;;;;8.60;5.75;;;;;;;;;;4972058;28;20449;-59
2021/09/26 03:02:05;;;;;;;10.05;6.13;;;;;;;;;;4972062;28;20026;-58
2021/09/26 03:04:43;;;;;;;9.52;6.38;;;;;;;;;;4973187;28;20027;-59
2021/09/26 03:07:08;;;;;;;7.50;6.00;;;;;;;;;;4973293;28;20018;-60
2021/09/26 03:09:40;;;;;;;9.10;6.40;;;;;;;;;;4973116;28;20371;-59
2021/09/26 03:12:24;;;;;;;9.82;6.38;;;;;;;;;;4981554;28;20496;-60
2021/09/26 03:14:50;;;;;;;7.45;5.88;;;;;;;;;;4973890;28;20494;-56
2021/09/26 03:17:19;;;;;;;9.88;6.57;;;;;;;;;;4971922;28;20023;-58
2021/09/26 03:19:47;;;;;;;9.60;6.85;;;;;;;;;;4972061;28;20370;-61
2021/09/26 03:22:15;;;;;;;12.55;6.50;;;;;;;;;;4971826;28;20033;-58
2021/09/26 03:24:44;;;;;;;10.80;6.72;;;;;;;;;;4971849;28;20024;-57
2021/09/26 03:27:11;;;;;;;10.45;7.00;;;;;;;;;;4972923;28;20106;-60
2021/09/26 03:29:45;;;;;;;12.52;7.03;;;;;;;;;;4973054;28;20078;-60
2021/09/26 03:32:10;;;;;;;10.85;6.57;;;;;;;;;;4972984;28;20015;-60
2021/09/26 03:34:39;;;;;;;11.10;6.60;;;;;;;;;;4972854;28;20023;-57
2021/09/26 03:37:04;;;;;;;11.02;7.15;;;;;;;;;;4972976;28;20018;-61
2021/09/26 03:39:29;;;;;;;10.63;7.55;;;;;;;;;;4972933;28;20030;-60
2021/09/26 03:41:57;;;;;;;8.25;6.32;;;;;;;;;;4971497;28;20019;-58
2021/09/26 03:44:23;;;;;;;11.82;7.40;;;;;;;;;;4972818;28;20452;-60
2021/09/26 03:46:52;;;;;;;12.73;7.10;;;;;;;;;;4972740;28;20110;-57
2021/09/26 03:49:18;;;;;;;11.35;7.28;;;;;;;;;;4972844;28;20025;-58
2021/09/26 03:51:44;;;;;;;10.55;7.63;;;;;;;;;;4974997;28;20015;-56
2021/09/26 03:54:12;;;;;;;9.68;7.05;;;;;;;;;;4975305;28;20026;-56
2021/09/26 03:56:37;;;;;;;12.70;7.35;;;;;;;;;;4976108;28;20105;-57
2021/09/26 03:59:03;;;;;;;9.00;7.13;;;;;;;;;;4976175;28;20098;-60
2021/09/26 04:01:31;;;;;;;9.63;7.35;;;;;;;;;;4976319;28;20026;-55
2021/09/26 04:03:56;;;;;;;12.63;7.00;;;;;;;;;;4976074;28;20106;-57
2021/09/26 04:06:21;;;;;;;17.77;7.27;;;;;;;;;;4974616;28;20448;-58
2021/09/26 04:08:47;;;;;;;8.63;7.03;;;;;;;;;;4975948;28;20629;-56
2021/09/26 04:11:20;;;;;;;10.80;7.90;;;;;;;;;;4978122;28;20266;-55
2021/09/26 04:13:48;;;;;;;10.60;7.57;;;;;;;;;;4985767;28;20037;-57
2021/09/26 04:16:13;;;;;;;15.13;7.35;;;;;;;;;;4974366;28;20097;-56
2021/09/26 04:18:41;;;;;;;12.15;7.72;;;;;;;;;;4974897;28;20517;-58
2021/09/26 04:21:09;;;;;;;10.18;8.00;;;;;;;;;;4975735;28;20050;-62
2021/09/26 04:23:34;;;;;;;13.10;8.60;;;;;;;;;;4975638;28;20019;-57
2021/09/26 04:26:00;;;;;;;10.15;8.13;;;;;;;;;;4974168;28;20031;-59
2021/09/26 04:28:25;;;;;;;12.70;8.47;;;;;;;;;;4974823;28;20418;-60
2021/09/26 04:30:50;;;;;;;11.83;8.10;;;;;;;;;;4975485;28;20770;-58
2021/09/26 04:33:16;;;;;;;13.48;9.13;;;;;;;;;;4975552;28;20285;-59
2021/09/26 04:35:47;;;;;;;11.38;8.30;;;;;;;;;;4974209;28;20062;-56
2021/09/26 04:38:21;;;;;;;12.27;8.82;;;;;;;;;;4975342;28;20027;-60
2021/09/26 04:40:47;;;;;;;14.10;8.68;;;;;;;;;;4975372;28;20551;-54
2021/09/26 04:43:12;;;;;;;14.23;9.30;;;;;;;;;;4975396;28;20055;-55
2021/09/26 04:45:37;;;;;;;11.48;8.80;;;;;;;;;;4973886;28;20390;-56
2021/09/26 04:48:06;;;;;;;15.10;9.18;;;;;;;;;;4975342;28;20105;-59
2021/09/26 04:50:31;;;;;;;14.88;8.95;;;;;;;;;;4973835;28;20050;-55
2021/09/26 04:52:57;;;;;;;11.45;8.50;;;;;;;;;;4975269;28;20054;-61
2021/09/26 04:55:24;;;;;;;13.00;8.77;;;;;;;;;;4973934;28;20023;-60
2021/09/26 04:57:50;;;;;;;15.15;8.85;;;;;;;;;;4973716;28;20262;-59
2021/09/26 05:00:15;;;;;;;14.27;9.40;;;;;;;;;;4974900;28;20499;-60
2021/09/26 05:02:47;;;;;;;13.38;9.07;;;;;;;;;;4975004;28;20037;-59
2021/09/26 05:05:12;;;;;;;13.85;8.35;;;;;;;;;;4973525;28;20025;-60
2021/09/26 05:07:40;;;;;;;13.43;8.60;;;;;;;;;;4974438;28;20117;-63
2021/09/26 05:10:06;;;;;;;15.18;8.27;;;;;;;;;;4974372;28;20033;-60
2021/09/26 05:12:31;;;;;;;10.85;7.60;;;;;;;;;;4987588;28;20424;-60
2021/09/26 05:15:09;;;;;;;12.52;8.40;;;;;;;;;;4974565;28;20042;-61
2021/09/26 05:17:34;;;;;;;15.00;8.43;;;;;;;;;;4974152;28;20027;-61
2021/09/26 05:20:07;;;;;;;13.65;8.85;;;;;;;;;;4973572;28;20022;-60
2021/09/26 05:22:39;;;;;;;12.48;8.27;;;;;;;;;;4974648;28;20532;-59
2021/09/26 05:25:05;;;;;;;16.38;8.80;;;;;;;;;;4974506;28;20042;-60
2021/09/26 05:27:30;;;;;;;13.07;8.95;;;;;;;;;;4974490;28;20018;-59
2021/09/26 05:29:55;;;;;;;10.77;8.00;;;;;;;;;;4974594;28;20107;-62
2021/09/26 05:32:20;;;;;;;13.00;8.80;;;;;;;;;;4974406;28;20021;-58
2021/09/26 05:34:46;;;;;;;12.68;8.25;;;;;;;;;;4974665;28;20768;-62
2021/09/26 05:37:11;;;;;;;13.27;9.07;;;;;;;;;;4957233;28;20049;-60
2021/09/26 05:39:37;;;;;;;15.07;9.27;;;;;;;;;;4974466;28;20015;-59
2021/09/26 05:42:03;;;;;;;18.02;9.30;;;;;;;;;;4974481;28;20026;-58
2021/09/26 05:44:32;;;;;;;13.38;8.77;;;;;;;;;;4974377;28;20019;-58
2021/09/26 05:46:57;;;;;;;10.70;8.25;;;;;;;;;;4974156;28;20425;-58
2021/09/26 05:49:22;;;;;;;14.40;9.10;;;;;;;;;;4974428;28;20021;-57
2021/09/26 05:51:47;;;;;;;14.10;7.87;;;;;;;;;;4974235;28;20485;-58
2021/09/26 05:54:13;;;;;;;14.03;8.40;;;;;;;;;;4974159;28;20321;-58
2021/09/26 05:56:38;;;;;;;10.60;7.88;;;;;;;;;;4972846;28;20270;-61
2021/09/26 05:59:03;;;;;;;11.30;7.80;;;;;;;;;;4972956;28;20109;-60
2021/09/26 06:01:29;;;;;;;11.40;7.80;;;;;;;;;;4974010;28;20060;-58
2021/09/26 06:03:54;;;;;;;11.25;8.13;;;;;;;;;;4974133;28;20259;-58
2021/09/26 06:06:19;;;;;;;11.87;7.87;;;;;;;;;;4973861;28;20110;-60
2021/09/26 06:08:44;;;;;;;11.60;7.68;;;;;;;;;;4974095;28;20274;-59
2021/09/26 06:11:10;;;;;;;12.03;8.00;;;;;;;;;;4975864;28;20018;-60
2021/09/26 06:13:35;;;;;;;14.67;9.43;;;;;;;;;;4984746;28;20015;-60
2021/09/26 06:16:02;;;;;;;15.05;8.05;;;;;;;;;;4973531;28;20290;-59
2021/09/26 06:18:27;;;;;;;12.18;7.68;;;;;;;;;;4973915;28;20378;-63
2021/09/26 06:20:53;;;;;;;10.00;7.32;;;;;;;;;;4973837;28;20023;-60
2021/09/26 06:23:18;;;;;;;10.52;7.13;;;;;;;;;;4972515;28;20022;-60
2021/09/26 06:25:43;;;;;;;10.68;8.23;;;;;;;;;;4973727;28;20069;-61
2021/09/26 06:28:09;;;;;;;12.07;8.05;;;;;;;;;;4973721;28;20414;-57
2021/09/26 06:30:36;;;;;;;13.38;8.02;;;;;;;;;;4973516;28;20077;-58
2021/09/26 06:33:02;;;;;;;11.55;8.85;;;;;;;;;;4989361;28;20482;-56
2021/09/26 06:35:27;;;;;;;13.65;8.93;;;;;;;;;;4989714;28;20048;-57
2021/09/26 06:37:54;;;;;;;14.40;10.27;;;;;;;;;;4977074;28;20397;-61
2021/09/26 06:40:19;;;;;;;18.63;11.52;;;;;;;;;;4978046;28;20417;-59
2021/09/26 06:42:44;;;;;;;20.95;12.80;;;;;;;;;;4977917;28;20130;-58
2021/09/26 06:45:10;;;;;;;25.87;13.47;;;;;;;;;;4973381;28;20100;-58
2021/09/26 06:47:35;;;;;;;27.77;11.07;;;;;;;;;;4973504;28;20773;-60
2021/09/26 06:50:00;;;;;;;61.13;9.73;;;;;;;;;;4972303;28;20387;-59
2021/09/26 06:52:26;;;;;;;28.30;9.07;;;;;;;;;;4972282;28;20508;-60
2021/09/26 06:54:51;;;;;;;14.88;8.60;;;;;;;;;;4973384;28;20031;-59
2021/09/26 06:57:16;;;;;;;12.18;9.63;;;;;;;;;;4973560;28;20023;-59
2021/09/26 06:59:42;;;;;;;13.02;9.82;;;;;;;;;;4973354;28;20062;-59
2021/09/26 07:02:07;;;;;;;13.40;10.43;;;;;;;;;;4972221;28;20022;-58
2021/09/26 07:04:33;;;;;;;15.27;11.15;;;;;;;;;;4972091;28;20019;-59
2021/09/26 07:06:58;;;;;;;19.92;12.00;;;;;;;;;;4973292;28;20062;-59
2021/09/26 07:09:24;;;;;;;19.92;13.50;;;;;;;;;;4973262;28;20437;-59
2021/09/26 07:11:49;;;;;;;23.23;14.27;;;;;;;;;;4979637;28;20081;-59
2021/09/26 07:14:14;;;;;;;17.83;13.40;;;;;;;;;;4978488;28;20280;-60
2021/09/26 07:16:39;;;;;;;21.53;13.53;;;;;;;;;;5010931;23;20058;-62
2021/09/26 07:19:05;;;;;;;20.37;14.13;;;;;;;;;;5000438;28;20759;-64
2021/09/26 07:21:30;;;;;;;20.80;13.93;;;;;;;;;;5003953;28;20679;-64
2021/09/26 07:23:56;;;;;;;20.70;14.48;;;;;;;;;;5003979;28;20065;-64
2021/09/26 07:26:21;;;;;;;19.13;13.85;;;;;;;;;;5007931;28;20089;-64
2021/09/26 07:28:47;;;;;;;18.27;12.75;;;;;;;;;;4996948;28;20018;-65
2021/09/26 07:31:18;;;;;;;18.58;13.00;;;;;;;;;;5006591;28;20030;-64
2021/09/26 07:33:44;;;;;;;19.25;11.38;;;;;;;;;;5006835;28;20430;-64
2021/09/26 07:36:10;;;;;;;13.52;10.52;;;;;;;;;;5021476;28;20034;-65
2021/09/26 07:38:38;;;;;;;12.23;9.90;;;;;;;;;;4995926;28;20018;-65
2021/09/26 07:41:03;;;;;;;14.48;10.38;;;;;;;;;;4995891;28;20080;-65
2021/09/26 07:43:29;;;;;;;19.33;10.50;;;;;;;;;;4995721;28;20026;-65
2021/09/26 07:45:59;;;;;;;15.18;10.43;;;;;;;;;;5014150;28;20280;-64
2021/09/26 07:48:27;;;;;;;12.73;8.70;;;;;;;;;;5015465;28;20499;-64
2021/09/26 07:50:52;;;;;;;11.20;7.65;;;;;;;;;;5015474;28;20021;-64
2021/09/26 07:53:18;;;;;;;9.65;6.80;;;;;;;;;;5015313;28;20025;-65
2021/09/26 07:55:51;;;;;;;8.95;6.78;;;;;;;;;;5015075;28;20025;-64
2021/09/26 07:58:19;;;;;;;10.60;6.60;;;;;;;;;;5015154;28;20168;-64
2021/09/26 08:00:44;;;;;;;8.18;5.70;;;;;;;;;;5012597;28;20026;-65
2021/09/26 08:03:15;;;;;;;8.37;5.03;;;;;;;;;;5013268;28;20022;-65
2021/09/26 08:05:41;;;;;;;5.60;3.75;;;;;;;;;;5013942;28;20307;-65
2021/09/26 08:08:09;;;;;;;6.07;3.92;;;;;;;;;;4998692;28;20058;-65
2021/09/26 08:10:43;;;;;;;8.63;4.57;;;;;;;;;;4994112;28;20042;-65
2021/09/26 08:13:11;;;;;;;5.35;4.32;;;;;;;;;;5013533;28;20076;-65
2021/09/26 08:15:36;;;;;;;6.25;4.13;;;;;;;;;;5014894;28;20050;-65
2021/09/26 08:18:01;;;;;;;12.02;4.75;;;;;;;;;;5008308;28;20021;-65
2021/09/26 08:20:32;;;;;;;6.53;4.13;;;;;;;;;;5009119;28;20518;-65
2021/09/26 08:22:57;;;;;;;5.85;4.30;;;;;;;;;;5012531;28;20303;-66
2021/09/26 08:25:23;;;;;;;6.05;4.40;;;;;;;;;;5020942;28;20488;-65
2021/09/26 08:27:48;;;;;;;6.60;4.33;;;;;;;;;;5011201;28;20054;-66
2021/09/26 08:30:23;;;;;;;5.60;3.90;;;;;;;;;;5014736;28;20269;-65
2021/09/26 08:32:48;;;;;;;5.68;3.95;;;;;;;;;;5008487;28;20508;-64
2021/09/26 08:35:17;;;;;;;5.85;3.90;;;;;;;;;;5009445;28;20022;-63
2021/09/26 08:37:42;;;;;;;6.28;4.00;;;;;;;;;;5013101;28;20017;-63
2021/09/26 08:40:09;;;;;;;5.88;4.50;;;;;;;;;;5006243;28;20037;-63
2021/09/26 08:42:37;;;;;;;7.20;3.88;;;;;;;;;;5018564;28;20524;-62
2021/09/26 08:45:14;;;;;;;5.57;4.40;;;;;;;;;;5003893;28;20036;-63
2021/09/26 08:47:40;;;;;;;5.18;3.72;;;;;;;;;;5005165;28;20508;-62
2021/09/26 08:50:19;;;;;;;7.60;3.83;;;;;;;;;;5007711;28;20026;-62
2021/09/26 08:52:53;;;;;;;4.82;3.58;;;;;;;;;;4994644;28;20034;-63
2021/09/26 08:55:19;;;;;;;4.53;3.60;;;;;;;;;;4993332;28;20025;-62
2021/09/26 08:57:47;;;;;;;7.00;4.55;;;;;;;;;;5001066;28;20025;-63
2021/09/26 09:00:14;;;;;;;4.88;4.00;;;;;;;;;;5012415;28;20048;-62
2021/09/26 09:02:48;;;;;;;6.38;4.65;;;;;;;;;;5000937;28;20022;-62
2021/09/26 09:05:27;;;;;;;7.45;5.22;;;;;;;;;;4993650;28;20026;-62
2021/09/26 09:08:09;;;;;;;6.15;5.00;;;;;;;;;;5001309;28;20014;-62
2021/09/26 09:10:48;;;;;;;8.07;5.78;;;;;;;;;;5012579;28;20045;-62
2021/09/26 09:13:30;;;;;;;9.65;5.65;;;;;;;;;;5025141;28;20242;-61
2021/09/26 09:15:56;;;;;;;6.28;5.00;;;;;;;;;;5008694;28;20053;-61
2021/09/26 09:18:25;;;;;;;7.88;5.43;;;;;;;;;;5012307;28;20028;-62
2021/09/26 09:20:51;;;;;;;10.30;6.30;;;;;;;;;;5011067;28;20536;-61
2021/09/26 09:23:18;;;;;;;6.03;5.43;;;;;;;;;;4994187;28;20019;-61
2021/09/26 09:25:56;;;;;;;7.18;5.07;;;;;;;;;;5003419;28;20029;-62
2021/09/26 09:28:29;;;;;;;7.50;5.80;;;;;;;;;;5002619;28;20016;-62
2021/09/26 09:30:58;;;;;;;11.00;5.55;;;;;;;;;;5010225;28;20006;-62
2021/09/26 09:33:42;;;;;;;8.27;5.90;;;;;;;;;;5023502;28;20578;-62
2021/09/26 09:36:18;;;;;;;8.02;5.82;;;;;;;;;;4993165;28;20038;-63
2021/09/26 09:38:43;;;;;;;8.40;5.63;;;;;;;;;;5008700;28;20049;-62
2021/09/26 09:41:12;;;;;;;14.87;5.40;;;;;;;;;;4997580;28;20425;-62
2021/09/26 09:43:47;;;;;;;9.00;5.38;;;;;;;;;;5026482;28;20265;-62
2021/09/26 09:46:14;;;;;;;8.25;6.07;;;;;;;;;;4992148;28;20014;-62
2021/09/26 09:48:42;;;;;;;7.28;6.15;;;;;;;;;;5007922;28;20383;-62
2021/09/26 09:51:11;;;;;;;9.27;6.00;;;;;;;;;;5002950;28;20032;-62
2021/09/26 09:53:39;;;;;;;8.00;5.93;;;;;;;;;;4993450;28;20033;-62
2021/09/26 09:56:10;;;;;;;6.90;5.70;;;;;;;;;;4993401;28;20014;-65
2021/09/26 09:58:49;;;;;;;7.75;5.18;;;;;;;;;;4993364;28;20020;-65
2021/09/26 10:01:23;;;;;;;7.60;5.75;;;;;;;;;;4993434;28;20044;-65
2021/09/26 10:03:49;;;;;;;10.38;6.88;;;;;;;;;;5008572;28;20027;-65
2021/09/26 10:06:29;;;;;;;8.30;5.57;;;;;;;;;;5008234;28;20038;-65
2021/09/26 10:08:56;;;;;;;9.32;5.70;;;;;;;;;;4993296;28;20069;-65
2021/09/26 10:11:21;;;;;;;8.38;5.85;;;;;;;;;;5024790;28;20025;-65
2021/09/26 10:13:47;;;;;;;5.93;5.10;;;;;;;;;;5009134;28;20500;-65
2021/09/26 10:16:12;;;;;;;7.75;5.05;;;;;;;;;;5027760;28;20124;-65
2021/09/26 10:18:44;;;;;;;7.32;5.20;;;;;;;;;;5012726;28;20572;-63
2021/09/26 10:21:12;;;;;;;7.47;5.20;;;;;;;;;;5012693;28;20093;-62
2021/09/26 10:23:42;;;;;;;8.27;5.22;;;;;;;;;;5012771;28;20022;-62
2021/09/26 10:26:08;;;;;;;7.50;4.97;;;;;;;;;;5027574;28;20034;-62
2021/09/26 10:28:52;;;;;;;9.45;5.50;;;;;;;;;;5012809;28;20488;-63
2021/09/26 10:31:23;;;;;;;6.22;4.90;;;;;;;;;;5011294;28;20559;-62
2021/09/26 10:33:49;;;;;;;7.57;5.32;;;;;;;;;;5016904;28;20021;-62
2021/09/26 10:36:19;;;;;;;7.60;4.90;;;;;;;;;;4992888;28;20033;-63
2021/09/26 10:38:45;;;;;;;6.22;4.53;;;;;;;;;;4992970;28;20481;-63
2021/09/26 10:41:11;;;;;;;7.20;4.53;;;;;;;;;;4992967;28;20105;-63
2021/09/26 10:43:49;;;;;;;6.23;4.90;;;;;;;;;;4995049;28;20049;-63
2021/09/26 10:46:25;;;;;;;6.65;5.13;;;;;;;;;;5012519;28;20280;-63
2021/09/26 10:48:59;;;;;;;5.95;4.95;;;;;;;;;;5005454;28;20153;-63
2021/09/26 10:51:46;;;;;;;7.95;4.80;;;;;;;;;;5003206;28;20022;-63
2021/09/26 10:54:23;;;;;;;8.27;5.10;;;;;;;;;;5024125;28;20026;-63
2021/09/26 10:57:03;;;;;;;5.53;4.60;;;;;;;;;;5011311;28;20408;-63
2021/09/26 10:59:39;;;;;;;7.60;4.55;;;;;;;;;;5003715;28;20505;-63
2021/09/26 11:02:24;;;;;;;8.68;5.28;;;;;;;;;;4996945;28;20033;-63
2021/09/26 11:04:57;;;;;;;5.85;4.93;;;;;;;;;;4996540;28;20485;-63
2021/09/26 11:07:31;;;;;;;7.25;4.57;;;;;;;;;;4996623;28;20030;-63
2021/09/26 11:09:58;;;;;;;8.60;4.90;;;;;;;;;;5012904;28;20021;-63
2021/09/26 11:12:35;;;;;;;6.38;4.68;;;;;;;;;;5016013;28;20022;-63
2021/09/26 11:15:02;;;;;;;5.95;5.35;;;;;;;;;;5014571;28;20064;-64
2021/09/26 11:17:40;;;;;;;7.60;5.03;;;;;;;;;;5014840;28;20045;-63
2021/09/26 11:20:06;;;;;;;7.72;4.85;;;;;;;;;;5013927;28;20064;-63
2021/09/26 11:22:31;;;;;;;7.95;4.70;;;;;;;;;;5016072;28;20266;-63
2021/09/26 11:24:59;;;;;;;7.37;5.03;;;;;;;;;;5015820;28;20057;-63
2021/09/26 11:27:40;;;;;;;5.55;4.90;;;;;;;;;;5013055;28;20346;-63
2021/09/26 11:30:11;;;;;;;6.15;5.25;;;;;;;;;;5013460;28;20069;-63
2021/09/26 11:32:36;;;;;;;9.35;5.88;;;;;;;;;;5010846;28;20066;-63
2021/09/26 11:35:21;;;;;;;6.55;5.20;;;;;;;;;;5004510;28;20022;-62
2021/09/26 11:37:53;;;;;;;6.60;5.00;;;;;;;;;;5014152;28;20076;-62
2021/09/26 11:40:26;;;;;;;8.57;5.53;;;;;;;;;;5015421;28;20113;-62
2021/09/26 11:42:55;;;;;;;;;;;;;;;;;;5013245;28;20398;-63
2021/09/26 11:45:27;;;;;;;6.70;5.20;;;;;;;;;;5014174;28;19912;-63
2021/09/26 11:47:58;;;;;;;5.85;4.80;;;;;;;;;;5010988;28;20057;-62
2021/09/26 11:50:32;;;;;;;6.25;4.70;;;;;;;;;;5001593;28;20045;-63
2021/09/26 11:53:00;;;;;;;8.55;5.03;;;;;;;;;;5012434;28;20116;-63
2021/09/26 11:55:29;;;;;;;7.85;4.93;;;;;;;;;;5006434;28;20014;-63
2021/09/26 11:58:01;;;;;;;7.63;5.30;;;;;;;;;;5003610;28;20494;-63
2021/09/26 12:00:29;;;;;;;6.82;4.85;;;;;;;;;;5000777;28;20026;-63
2021/09/26 12:03:10;;;;;;;7.25;4.80;;;;;;;;;;5015174;28;20022;-63
2021/09/26 12:05:36;;;;;;;6.63;4.57;;;;;;;;;;5030340;28;20026;-62
2021/09/26 12:08:03;;;;;;;7.55;5.05;;;;;;;;;;5010662;28;20009;-62
2021/09/26 12:10:32;;;;;;;6.05;4.85;;;;;;;;;;5007775;28;20033;-62
2021/09/26 12:13:11;;;;;;;12.27;4.88;;;;;;;;;;5009995;28;20061;-63
2021/09/26 12:15:42;;;;;;;7.60;4.97;;;;;;;;;;5014456;28;20074;-62
2021/09/26 12:18:16;;;;;;;7.28;4.85;;;;;;;;;;5013508;28;20063;-62
2021/09/26 12:20:41;;;;;;;7.90;5.05;;;;;;;;;;5011201;28;20018;-63
2021/09/26 12:23:20;;;;;;;7.67;4.80;;;;;;;;;;5003122;28;20358;-62
2021/09/26 12:25:45;;;;;;;7.50;4.80;;;;;;;;;;5011772;28;20025;-62
2021/09/26 12:28:19;;;;;;;6.33;5.13;;;;;;;;;;5009552;28;20057;-63
2021/09/26 12:30:44;;;;;;;7.07;5.00;;;;;;;;;;5005040;28;20257;-63
2021/09/26 12:33:09;;;;;;;6.82;4.85;;;;;;;;;;4998427;28;20088;-63
2021/09/26 12:35:46;;;;;;;6.43;4.80;;;;;;;;;;5002297;28;20373;-63
2021/09/26 12:38:22;;;;;;;7.30;4.40;;;;;;;;;;5004499;28;20389;-63
2021/09/26 12:40:59;;;;;;;7.80;5.43;;;;;;;;;;5014584;28;20053;-63
2021/09/26 12:43:25;;;;;;;7.75;5.25;;;;;;;;;;5029568;28;20065;-63
2021/09/26 12:45:51;;;;;;;7.78;5.32;;;;;;;;;;5007783;28;20473;-63
2021/09/26 12:48:23;;;;;;;8.30;5.22;;;;;;;;;;4998104;28;20066;-63
2021/09/26 12:50:50;;;;;;;7.63;5.07;;;;;;;;;;5022431;28;20018;-63
2021/09/26 12:53:27;;;;;;;8.75;4.90;;;;;;;;;;5001552;28;20362;-63
2021/09/26 12:55:54;;;;;;;6.03;4.68;;;;;;;;;;5002119;28;20462;-64
2021/09/26 12:58:37;;;;;;;7.47;5.20;;;;;;;;;;5012360;28;20423;-63
2021/09/26 13:01:11;;;;;;;8.10;5.45;;;;;;;;;;5000595;28;20492;-64
2021/09/26 13:03:43;;;;;;;8.73;5.65;;;;;;;;;;5009143;28;20095;-62
2021/09/26 13:06:22;;;;;;;7.85;5.38;;;;;;;;;;5008334;28;20026;-62
2021/09/26 13:08:55;;;;;;;9.00;5.30;;;;;;;;;;5012095;28;20392;-63
2021/09/26 13:11:32;;;;;;;6.97;5.22;;;;;;;;;;4995593;28;20021;-66
2021/09/26 13:14:15;;;;;;;7.15;5.45;;;;;;;;;;4999634;28;20029;-65
2021/09/26 13:16:43;;;;;;;5.45;4.57;;;;;;;;;;5006257;23;20149;-62
2021/09/26 13:19:26;;;;;;;7.05;5.05;;;;;;;;;;4992652;28;20026;-62
2021/09/26 13:22:04;;;;;;;6.57;5.18;;;;;;;;;;4986664;28;20540;-62
2021/09/26 13:24:29;;;;;;;7.60;5.47;;;;;;;;;;4974781;28;20427;-62
2021/09/26 13:27:11;;;;;;;10.40;5.45;;;;;;;;;;4973256;28;20027;-62
2021/09/26 13:29:40;;;;;;;6.65;5.07;;;;;;;;;;4983767;28;20018;-62
2021/09/26 13:32:18;;;;;;;8.43;5.68;;;;;;;;;;4974612;28;20022;-62
2021/09/26 13:34:54;;;;;;;10.00;5.70;;;;;;;;;;4974433;28;20027;-62
2021/09/26 13:37:26;;;;;;;9.02;5.15;;;;;;;;;;4974896;28;20023;-62
2021/09/26 13:39:59;;;;;;;8.90;5.63;;;;;;;;;;4981343;28;20050;-62
2021/09/26 13:42:43;;;;;;;9.30;5.63;;;;;;;;;;4974317;28;20034;-62
2021/09/26 13:45:11;;;;;;;6.07;4.72;;;;;;;;;;4972921;28;20027;-62
2021/09/26 13:47:42;;;;;;;7.65;5.20;;;;;;;;;;4974194;28;20026;-62
2021/09/26 13:50:11;;;;;;;6.40;4.68;;;;;;;;;;4978750;28;20019;-62
2021/09/26 13:52:42;;;;;;;5.57;4.53;;;;;;;;;;4972818;28;20026;-62
2021/09/26 13:55:19;;;;;;;8.07;5.13;;;;;;;;;;4972881;28;20389;-62
2021/09/26 13:57:44;;;;;;;5.43;4.47;;;;;;;;;;4991664;28;20029;-62
2021/09/26 14:00:10;;;;;;;8.20;4.90;;;;;;;;;;4983357;28;20528;-62
2021/09/26 14:02:44;;;;;;;7.22;5.13;;;;;;;;;;4972857;28;20023;-62
2021/09/26 14:05:10;;;;;;;6.53;4.93;;;;;;;;;;4973923;28;20339;-62
2021/09/26 14:07:35;;;;;;;6.75;5.15;;;;;;;;;;4973851;28;20033;-62
2021/09/26 14:10:00;;;;;;;5.47;4.55;;;;;;;;;;4974460;28;20030;-62
2021/09/26 14:12:29;;;;;;;8.23;5.07;;;;;;;;;;4988941;28;20014;-62
2021/09/26 14:14:57;;;;;;;7.32;4.25;;;;;;;;;;4979899;28;20090;-62
2021/09/26 14:17:22;;;;;;;6.28;4.93;;;;;;;;;;4973650;28;20074;-62
2021/09/26 14:19:47;;;;;;;5.30;4.37;;;;;;;;;;4984242;28;20034;-62
2021/09/26 14:22:13;;;;;;;6.38;4.60;;;;;;;;;;4972435;28;20258;-62
2021/09/26 14:24:39;;;;;;;7.22;5.00;;;;;;;;;;4972251;28;20080;-62
2021/09/26 14:27:04;;;;;;;7.03;4.82;;;;;;;;;;4973519;28;20034;-62
2021/09/26 14:29:33;;;;;;;8.10;4.70;;;;;;;;;;4986377;28;20030;-62
2021/09/26 14:31:58;;;;;;;5.88;4.80;;;;;;;;;;4976314;28;20275;-62
2021/09/26 14:34:25;;;;;;;6.55;4.07;;;;;;;;;;4973151;28;20348;-62
2021/09/26 14:37:00;;;;;;;4.78;4.05;;;;;;;;;;4973540;28;20030;-62
2021/09/26 14:39:26;;;;;;;6.93;4.82;;;;;;;;;;4979911;28;20363;-62
2021/09/26 14:41:51;;;;;;;5.93;4.77;;;;;;;;;;4973532;28;20034;-62
2021/09/26 14:44:16;;;;;;;6.43;4.82;;;;;;;;;;4972027;28;20277;-62
2021/09/26 14:46:42;;;;;;;6.73;4.30;;;;;;;;;;4973271;28;20023;-62
2021/09/26 14:49:13;;;;;;;7.10;4.95;;;;;;;;;;4977523;28;20341;-62
2021/09/26 14:51:44;;;;;;;6.00;4.50;;;;;;;;;;4972156;28;20081;-62